sensor_id;sensor_type;location;lat;lon;timestamp;temperature;humidity
25512;DHT22;13414;44.534;18.700;2024-03-22T00:00:06;7.00;99.90
25512;DHT22;13414;44.534;18.700;2024-03-22T00:02:40;7.00;99.90
25512;DHT22;13414;44.534;18.700;2024-03-22T00:05:08;6.90;99.90
25512;DHT22;13414;44.534;18.700;2024-03-22T00:07:35;7.00;99.90
25512;DHT22;13414;44.534;18.700;2024-03-22T00:10:03;6.90;99.90
25512;DHT22;13414;44.534;18.700;2024-03-22T00:12:31;6.70;1.00
25512;DHT22;13414;44.534;18.700;2024-03-22T00:14:57;6.60;1.00
25512;DHT22;13414;44.534;18.700;2024-03-22T00:17:25;6.50;1.00
25512;DHT22;13414;44.534;18.700;2024-03-22T00:19:51;6.60;1.00
25512;DHT22;13414;44.534;18.700;2024-03-22T00:22:20;6.70;1.00
25512;DHT22;13414;44.534;18.700;2024-03-22T00:24:47;6.70;1.00
25512;DHT22;13414;44.534;18.700;2024-03-22T00:27:14;6.70;99.90
25512;DHT22;13414;44.534;18.700;2024-03-22T00:29:41;6.70;99.90
25512;DHT22;13414;44.534;18.700;2024-03-22T00:32:09;6.50;1.00
25512;DHT22;13414;44.534;18.700;2024-03-22T00:34:35;6.40;1.00
25512;DHT22;13414;44.534;18.700;2024-03-22T00:37:02;6.40;1.00
25512;DHT22;13414;44.534;18.700;2024-03-22T00:39:30;6.40;1.00
25512;DHT22;13414;44.534;18.700;2024-03-22T00:41:58;6.40;1.00
25512;DHT22;13414;44.534;18.700;2024-03-22T00:44:24;6.50;1.00
25512;DHT22;13414;44.534;18.700;2024-03-22T00:46:52;6.50;1.00
25512;DHT22;13414;44.534;18.700;2024-03-22T00:49:18;6.50;1.00
25512;DHT22;13414;44.534;18.700;2024-03-22T00:51:45;6.50;1.00
25512;DHT22;13414;44.534;18.700;2024-03-22T00:54:13;6.40;1.00
25512;DHT22;13414;44.534;18.700;2024-03-22T00:56:41;6.30;1.00
25512;DHT22;13414;44.534;18.700;2024-03-22T00:59:09;6.30;1.00
25512;DHT22;13414;44.534;18.700;2024-03-22T01:01:35;6.30;1.00
25512;DHT22;13414;44.534;18.700;2024-03-22T01:04:04;6.20;1.00
25512;DHT22;13414;44.534;18.700;2024-03-22T01:06:30;6.10;1.00
25512;DHT22;13414;44.534;18.700;2024-03-22T01:08:57;6.10;1.00
25512;DHT22;13414;44.534;18.700;2024-03-22T01:11:24;6.00;1.00
25512;DHT22;13414;44.534;18.700;2024-03-22T01:13:53;5.90;1.00
25512;DHT22;13414;44.534;18.700;2024-03-22T01:16:19;5.90;1.00
25512;DHT22;13414;44.534;18.700;2024-03-22T01:18:47;6.00;1.00
25512;DHT22;13414;44.534;18.700;2024-03-22T01:21:13;6.00;1.00
25512;DHT22;13414;44.534;18.700;2024-03-22T01:23:41;6.10;1.00
25512;DHT22;13414;44.534;18.700;2024-03-22T01:26:07;6.10;1.00
25512;DHT22;13414;44.534;18.700;2024-03-22T01:28:35;6.10;1.00
25512;DHT22;13414;44.534;18.700;2024-03-22T01:31:03;6.00;1.00
25512;DHT22;13414;44.534;18.700;2024-03-22T01:33:31;6.00;1.00
25512;DHT22;13414;44.534;18.700;2024-03-22T01:35:57;6.00;1.00
25512;DHT22;13414;44.534;18.700;2024-03-22T01:38:26;6.10;1.00
25512;DHT22;13414;44.534;18.700;2024-03-22T01:40:52;6.00;1.00
25512;DHT22;13414;44.534;18.700;2024-03-22T01:43:19;6.00;1.00
25512;DHT22;13414;44.534;18.700;2024-03-22T01:45:46;6.00;1.00
25512;DHT22;13414;44.534;18.700;2024-03-22T01:48:15;5.90;1.00
25512;DHT22;13414;44.534;18.700;2024-03-22T01:50:42;5.90;1.00
25512;DHT22;13414;44.534;18.700;2024-03-22T01:53:10;5.80;1.00
25512;DHT22;13414;44.534;18.700;2024-03-22T01:55:37;5.80;13.70
25512;DHT22;13414;44.534;18.700;2024-03-22T01:58:04;5.90;1.00
25512;DHT22;13414;44.534;18.700;2024-03-22T02:00:31;5.80;1.00
25512;DHT22;13414;44.534;18.700;2024-03-22T02:02:59;5.70;44.90
25512;DHT22;13414;44.534;18.700;2024-03-22T02:05:26;5.70;93.20
25512;DHT22;13414;44.534;18.700;2024-03-22T02:07:54;5.80;55.30
25512;DHT22;13414;44.534;18.700;2024-03-22T02:10:21;5.80;1.00
25512;DHT22;13414;44.534;18.700;2024-03-22T02:12:49;5.80;1.00
25512;DHT22;13414;44.534;18.700;2024-03-22T02:15:15;5.80;1.00
25512;DHT22;13414;44.534;18.700;2024-03-22T02:17:42;5.80;1.00
25512;DHT22;13414;44.534;18.700;2024-03-22T02:20:09;5.80;99.90
25512;DHT22;13414;44.534;18.700;2024-03-22T02:22:39;5.80;89.10
25512;DHT22;13414;44.534;18.700;2024-03-22T02:25:07;5.80;1.00
25512;DHT22;13414;44.534;18.700;2024-03-22T02:27:35;5.70;99.90
25512;DHT22;13414;44.534;18.700;2024-03-22T02:30:01;5.80;49.40
25512;DHT22;13414;44.534;18.700;2024-03-22T02:32:29;5.90;1.00
25512;DHT22;13414;44.534;18.700;2024-03-22T02:34:55;5.80;1.00
25512;DHT22;13414;44.534;18.700;2024-03-22T02:37:23;5.80;1.00
25512;DHT22;13414;44.534;18.700;2024-03-22T02:39:49;5.90;1.00
25512;DHT22;13414;44.534;18.700;2024-03-22T02:42:18;5.90;1.00
25512;DHT22;13414;44.534;18.700;2024-03-22T02:44:45;5.90;1.00
25512;DHT22;13414;44.534;18.700;2024-03-22T02:47:12;5.80;1.00
25512;DHT22;13414;44.534;18.700;2024-03-22T02:49:40;5.80;63.40
25512;DHT22;13414;44.534;18.700;2024-03-22T02:52:07;5.80;99.90
25512;DHT22;13414;44.534;18.700;2024-03-22T02:54:34;5.90;99.90
25512;DHT22;13414;44.534;18.700;2024-03-22T02:57:01;6.00;54.30
25512;DHT22;13414;44.534;18.700;2024-03-22T02:59:29;6.10;1.00
25512;DHT22;13414;44.534;18.700;2024-03-22T03:01:56;6.00;1.00
25512;DHT22;13414;44.534;18.700;2024-03-22T03:04:23;6.10;1.00
25512;DHT22;13414;44.534;18.700;2024-03-22T03:06:50;6.10;1.00
25512;DHT22;13414;44.534;18.700;2024-03-22T03:09:17;6.00;1.00
25512;DHT22;13414;44.534;18.700;2024-03-22T03:11:44;6.10;1.00
25512;DHT22;13414;44.534;18.700;2024-03-22T03:14:11;6.00;1.00
25512;DHT22;13414;44.534;18.700;2024-03-22T03:16:39;5.90;1.00
25512;DHT22;13414;44.534;18.700;2024-03-22T03:19:06;5.90;1.00
25512;DHT22;13414;44.534;18.700;2024-03-22T03:21:33;5.90;1.00
25512;DHT22;13414;44.534;18.700;2024-03-22T03:24:00;5.80;44.70
25512;DHT22;13414;44.534;18.700;2024-03-22T03:26:27;5.90;94.30
25512;DHT22;13414;44.534;18.700;2024-03-22T03:28:54;5.80;87.80
25512;DHT22;13414;44.534;18.700;2024-03-22T03:31:22;5.80;99.90
25512;DHT22;13414;44.534;18.700;2024-03-22T03:33:49;5.80;99.90
25512;DHT22;13414;44.534;18.700;2024-03-22T03:36:17;5.80;99.90
25512;DHT22;13414;44.534;18.700;2024-03-22T03:38:43;5.90;99.90
25512;DHT22;13414;44.534;18.700;2024-03-22T03:41:10;5.90;1.00
25512;DHT22;13414;44.534;18.700;2024-03-22T03:43:38;5.90;1.00
25512;DHT22;13414;44.534;18.700;2024-03-22T03:46:04;5.90;1.00
25512;DHT22;13414;44.534;18.700;2024-03-22T03:48:32;5.80;39.90
25512;DHT22;13414;44.534;18.700;2024-03-22T03:50:59;5.80;99.90
25512;DHT22;13414;44.534;18.700;2024-03-22T03:53:29;5.90;56.30
25512;DHT22;13414;44.534;18.700;2024-03-22T03:55:55;5.90;95.20
25512;DHT22;13414;44.534;18.700;2024-03-22T03:58:23;5.90;1.00
25512;DHT22;13414;44.534;18.700;2024-03-22T04:00:50;6.00;28.00
25512;DHT22;13414;44.534;18.700;2024-03-22T04:03:17;6.00;28.60
25512;DHT22;13414;44.534;18.700;2024-03-22T04:05:43;6.00;28.10
25512;DHT22;13414;44.534;18.700;2024-03-22T04:08:13;6.20;1.00
25512;DHT22;13414;44.534;18.700;2024-03-22T04:10:39;6.10;1.00
25512;DHT22;13414;44.534;18.700;2024-03-22T04:13:07;6.10;1.00
25512;DHT22;13414;44.534;18.700;2024-03-22T04:15:35;6.10;1.00
25512;DHT22;13414;44.534;18.700;2024-03-22T04:18:02;6.10;1.00
25512;DHT22;13414;44.534;18.700;2024-03-22T04:20:29;6.10;1.00
25512;DHT22;13414;44.534;18.700;2024-03-22T04:22:56;6.00;1.00
25512;DHT22;13414;44.534;18.700;2024-03-22T04:25:24;6.00;99.90
25512;DHT22;13414;44.534;18.700;2024-03-22T04:27:52;6.20;28.20
25512;DHT22;13414;44.534;18.700;2024-03-22T04:30:18;6.20;1.00
25512;DHT22;13414;44.534;18.700;2024-03-22T04:32:46;6.20;1.00
25512;DHT22;13414;44.534;18.700;2024-03-22T04:35:12;6.20;1.00
25512;DHT22;13414;44.534;18.700;2024-03-22T04:37:40;6.30;1.00
25512;DHT22;13414;44.534;18.700;2024-03-22T04:40:08;6.40;1.00
25512;DHT22;13414;44.534;18.700;2024-03-22T04:42:38;6.40;1.00
25512;DHT22;13414;44.534;18.700;2024-03-22T04:45:06;6.40;1.00
25512;DHT22;13414;44.534;18.700;2024-03-22T04:47:33;6.30;1.00
25512;DHT22;13414;44.534;18.700;2024-03-22T04:50:00;6.30;1.00
25512;DHT22;13414;44.534;18.700;2024-03-22T04:52:27;6.30;1.00
25512;DHT22;13414;44.534;18.700;2024-03-22T04:54:54;6.40;1.00
25512;DHT22;13414;44.534;18.700;2024-03-22T04:57:21;6.30;1.00
25512;DHT22;13414;44.534;18.700;2024-03-22T04:59:49;6.30;1.00
25512;DHT22;13414;44.534;18.700;2024-03-22T05:02:16;6.40;1.00
25512;DHT22;13414;44.534;18.700;2024-03-22T05:04:44;6.40;1.00
25512;DHT22;13414;44.534;18.700;2024-03-22T05:07:11;6.40;1.00
25512;DHT22;13414;44.534;18.700;2024-03-22T05:09:37;6.50;1.00
25512;DHT22;13414;44.534;18.700;2024-03-22T05:12:05;6.50;1.00
25512;DHT22;13414;44.534;18.700;2024-03-22T05:14:32;6.60;1.00
25512;DHT22;13414;44.534;18.700;2024-03-22T05:17:00;6.60;1.00
25512;DHT22;13414;44.534;18.700;2024-03-22T05:19:27;6.70;1.00
25512;DHT22;13414;44.534;18.700;2024-03-22T05:21:54;6.70;1.00
25512;DHT22;13414;44.534;18.700;2024-03-22T05:24:21;6.80;1.00
25512;DHT22;13414;44.534;18.700;2024-03-22T05:26:48;6.90;1.00
25512;DHT22;13414;44.534;18.700;2024-03-22T05:29:15;7.00;1.00
25512;DHT22;13414;44.534;18.700;2024-03-22T05:31:46;7.10;1.00
25512;DHT22;13414;44.534;18.700;2024-03-22T05:34:27;7.20;1.00
25512;DHT22;13414;44.534;18.700;2024-03-22T05:36:53;7.30;1.00
25512;DHT22;13414;44.534;18.700;2024-03-22T05:39:20;7.50;99.90
25512;DHT22;13414;44.534;18.700;2024-03-22T05:41:47;7.60;99.90
25512;DHT22;13414;44.534;18.700;2024-03-22T05:44:14;7.70;99.90
25512;DHT22;13414;44.534;18.700;2024-03-22T05:46:41;7.90;99.90
25512;DHT22;13414;44.534;18.700;2024-03-22T05:49:08;8.10;99.90
25512;DHT22;13414;44.534;18.700;2024-03-22T05:51:36;8.00;99.90
25512;DHT22;13414;44.534;18.700;2024-03-22T05:54:04;8.00;99.90
25512;DHT22;13414;44.534;18.700;2024-03-22T05:56:30;8.10;57.20
25512;DHT22;13414;44.534;18.700;2024-03-22T05:58:57;8.10;26.40
25512;DHT22;13414;44.534;18.700;2024-03-22T06:01:25;8.30;63.70
25512;DHT22;13414;44.534;18.700;2024-03-22T06:03:53;8.30;33.00
25512;DHT22;13414;44.534;18.700;2024-03-22T06:06:19;8.30;50.60
25512;DHT22;13414;44.534;18.700;2024-03-22T06:08:52;8.20;68.70
25512;DHT22;13414;44.534;18.700;2024-03-22T06:11:20;8.40;16.10
25512;DHT22;13414;44.534;18.700;2024-03-22T06:13:47;8.40;39.60
25512;DHT22;13414;44.534;18.700;2024-03-22T06:16:14;8.50;14.80
25512;DHT22;13414;44.534;18.700;2024-03-22T06:18:41;8.60;1.00
25512;DHT22;13414;44.534;18.700;2024-03-22T06:21:08;8.80;1.00
25512;DHT22;13414;44.534;18.700;2024-03-22T06:23:35;9.10;1.00
25512;DHT22;13414;44.534;18.700;2024-03-22T06:26:03;9.50;1.00
25512;DHT22;13414;44.534;18.700;2024-03-22T06:28:31;9.80;1.00
25512;DHT22;13414;44.534;18.700;2024-03-22T06:30:57;10.10;1.00
25512;DHT22;13414;44.534;18.700;2024-03-22T06:33:24;10.30;1.00
25512;DHT22;13414;44.534;18.700;2024-03-22T06:35:51;10.50;1.00
25512;DHT22;13414;44.534;18.700;2024-03-22T06:38:18;10.60;1.00
25512;DHT22;13414;44.534;18.700;2024-03-22T06:40:45;10.60;1.00
25512;DHT22;13414;44.534;18.700;2024-03-22T06:43:14;10.70;1.00
25512;DHT22;13414;44.534;18.700;2024-03-22T06:45:40;10.90;1.00
25512;DHT22;13414;44.534;18.700;2024-03-22T06:48:07;11.00;1.00
25512;DHT22;13414;44.534;18.700;2024-03-22T06:50:34;11.30;1.00
25512;DHT22;13414;44.534;18.700;2024-03-22T06:53:01;11.60;1.00
25512;DHT22;13414;44.534;18.700;2024-03-22T06:55:28;11.70;1.00
25512;DHT22;13414;44.534;18.700;2024-03-22T06:57:56;11.80;1.00
25512;DHT22;13414;44.534;18.700;2024-03-22T07:00:24;12.00;1.00
25512;DHT22;13414;44.534;18.700;2024-03-22T07:02:51;12.30;1.00
25512;DHT22;13414;44.534;18.700;2024-03-22T07:05:17;12.40;1.00
25512;DHT22;13414;44.534;18.700;2024-03-22T07:07:45;12.70;1.00
25512;DHT22;13414;44.534;18.700;2024-03-22T07:10:11;13.10;1.00
25512;DHT22;13414;44.534;18.700;2024-03-22T07:12:39;13.20;1.00
25512;DHT22;13414;44.534;18.700;2024-03-22T07:15:06;12.80;1.00
25512;DHT22;13414;44.534;18.700;2024-03-22T07:17:35;12.60;1.00
25512;DHT22;13414;44.534;18.700;2024-03-22T07:20:02;12.40;1.00
25512;DHT22;13414;44.534;18.700;2024-03-22T07:22:30;12.40;1.00
25512;DHT22;13414;44.534;18.700;2024-03-22T07:24:56;12.50;1.00
25512;DHT22;13414;44.534;18.700;2024-03-22T07:27:23;12.80;1.00
25512;DHT22;13414;44.534;18.700;2024-03-22T07:29:50;13.10;1.00
25512;DHT22;13414;44.534;18.700;2024-03-22T07:32:17;13.30;1.00
25512;DHT22;13414;44.534;18.700;2024-03-22T07:34:47;13.50;1.00
25512;DHT22;13414;44.534;18.700;2024-03-22T07:37:15;13.70;1.00
25512;DHT22;13414;44.534;18.700;2024-03-22T07:39:41;13.80;1.00
25512;DHT22;13414;44.534;18.700;2024-03-22T07:42:09;13.70;1.00
25512;DHT22;13414;44.534;18.700;2024-03-22T07:44:35;13.70;1.00
25512;DHT22;13414;44.534;18.700;2024-03-22T07:47:02;13.90;1.00
25512;DHT22;13414;44.534;18.700;2024-03-22T07:49:29;14.20;1.00
25512;DHT22;13414;44.534;18.700;2024-03-22T07:51:59;14.30;1.00
25512;DHT22;13414;44.534;18.700;2024-03-22T07:54:25;14.40;1.00
25512;DHT22;13414;44.534;18.700;2024-03-22T07:56:53;14.50;1.00
25512;DHT22;13414;44.534;18.700;2024-03-22T07:59:19;14.70;1.00
25512;DHT22;13414;44.534;18.700;2024-03-22T08:01:47;14.70;1.00
25512;DHT22;13414;44.534;18.700;2024-03-22T08:04:14;14.90;1.00
25512;DHT22;13414;44.534;18.700;2024-03-22T08:06:41;15.10;1.00
25512;DHT22;13414;44.534;18.700;2024-03-22T08:09:09;15.10;1.00
25512;DHT22;13414;44.534;18.700;2024-03-22T08:11:36;15.20;1.00
25512;DHT22;13414;44.534;18.700;2024-03-22T08:14:03;15.40;1.00
25512;DHT22;13414;44.534;18.700;2024-03-22T08:16:30;15.50;1.00
25512;DHT22;13414;44.534;18.700;2024-03-22T08:18:57;15.80;1.00
25512;DHT22;13414;44.534;18.700;2024-03-22T08:21:24;16.00;1.00
25512;DHT22;13414;44.534;18.700;2024-03-22T08:23:51;16.20;1.00
25512;DHT22;13414;44.534;18.700;2024-03-22T08:26:20;16.30;1.00
25512;DHT22;13414;44.534;18.700;2024-03-22T08:28:47;16.40;1.00
25512;DHT22;13414;44.534;18.700;2024-03-22T08:31:15;16.20;1.00
25512;DHT22;13414;44.534;18.700;2024-03-22T08:33:43;16.10;1.00
25512;DHT22;13414;44.534;18.700;2024-03-22T08:36:10;16.20;1.00
25512;DHT22;13414;44.534;18.700;2024-03-22T08:38:36;16.20;1.00
25512;DHT22;13414;44.534;18.700;2024-03-22T08:41:04;16.10;1.00
25512;DHT22;13414;44.534;18.700;2024-03-22T08:43:32;16.40;1.00
25512;DHT22;13414;44.534;18.700;2024-03-22T08:45:59;16.40;1.00
25512;DHT22;13414;44.534;18.700;2024-03-22T08:48:26;16.30;1.00
25512;DHT22;13414;44.534;18.700;2024-03-22T08:50:53;16.30;1.00
25512;DHT22;13414;44.534;18.700;2024-03-22T08:53:20;16.30;1.00
25512;DHT22;13414;44.534;18.700;2024-03-22T08:55:47;16.50;1.00
25512;DHT22;13414;44.534;18.700;2024-03-22T08:58:14;16.50;1.00
25512;DHT22;13414;44.534;18.700;2024-03-22T09:00:45;16.60;1.00
25512;DHT22;13414;44.534;18.700;2024-03-22T09:03:11;16.60;1.00
25512;DHT22;13414;44.534;18.700;2024-03-22T09:05:40;16.70;1.00
25512;DHT22;13414;44.534;18.700;2024-03-22T09:08:07;16.70;1.00
25512;DHT22;13414;44.534;18.700;2024-03-22T09:10:35;16.70;1.00
25512;DHT22;13414;44.534;18.700;2024-03-22T09:13:01;16.90;1.00
25512;DHT22;13414;44.534;18.700;2024-03-22T09:15:29;17.00;1.00
25512;DHT22;13414;44.534;18.700;2024-03-22T09:17:57;17.00;1.00
25512;DHT22;13414;44.534;18.700;2024-03-22T09:20:24;17.10;1.00
25512;DHT22;13414;44.534;18.700;2024-03-22T09:22:51;17.10;1.00
25512;DHT22;13414;44.534;18.700;2024-03-22T09:25:18;17.40;1.00
25512;DHT22;13414;44.534;18.700;2024-03-22T09:27:44;17.60;1.00
25512;DHT22;13414;44.534;18.700;2024-03-22T09:30:13;17.80;1.00
25512;DHT22;13414;44.534;18.700;2024-03-22T09:32:39;18.00;1.00
25512;DHT22;13414;44.534;18.700;2024-03-22T09:35:09;18.10;1.00
25512;DHT22;13414;44.534;18.700;2024-03-22T09:37:35;18.10;1.00
25512;DHT22;13414;44.534;18.700;2024-03-22T09:40:04;18.20;1.00
25512;DHT22;13414;44.534;18.700;2024-03-22T09:42:33;18.30;1.00
25512;DHT22;13414;44.534;18.700;2024-03-22T09:45:08;18.40;1.00
25512;DHT22;13414;44.534;18.700;2024-03-22T09:47:37;18.60;1.00
25512;DHT22;13414;44.534;18.700;2024-03-22T09:50:08;18.80;1.00
25512;DHT22;13414;44.534;18.700;2024-03-22T09:52:35;19.10;1.00
25512;DHT22;13414;44.534;18.700;2024-03-22T09:55:06;19.40;1.00
25512;DHT22;13414;44.534;18.700;2024-03-22T09:57:35;19.60;1.00
25512;DHT22;13414;44.534;18.700;2024-03-22T10:00:07;19.60;1.00
25512;DHT22;13414;44.534;18.700;2024-03-22T10:02:38;19.50;1.00
25512;DHT22;13414;44.534;18.700;2024-03-22T10:05:08;19.30;1.00
25512;DHT22;13414;44.534;18.700;2024-03-22T10:07:34;19.10;1.00
25512;DHT22;13414;44.534;18.700;2024-03-22T10:10:02;19.20;1.00
25512;DHT22;13414;44.534;18.700;2024-03-22T10:12:29;19.30;1.00
25512;DHT22;13414;44.534;18.700;2024-03-22T10:14:57;19.20;1.00
25512;DHT22;13414;44.534;18.700;2024-03-22T10:17:26;18.90;1.00
25512;DHT22;13414;44.534;18.700;2024-03-22T10:19:54;18.90;1.00
25512;DHT22;13414;44.534;18.700;2024-03-22T10:22:22;18.70;1.00
25512;DHT22;13414;44.534;18.700;2024-03-22T10:24:50;18.80;1.00
25512;DHT22;13414;44.534;18.700;2024-03-22T10:27:18;18.90;1.00
25512;DHT22;13414;44.534;18.700;2024-03-22T10:29:47;19.10;1.00
25512;DHT22;13414;44.534;18.700;2024-03-22T10:32:16;18.70;1.00
25512;DHT22;13414;44.534;18.700;2024-03-22T10:34:45;18.70;1.00
25512;DHT22;13414;44.534;18.700;2024-03-22T10:37:14;18.90;1.00
25512;DHT22;13414;44.534;18.700;2024-03-22T10:39:46;19.00;1.00
25512;DHT22;13414;44.534;18.700;2024-03-22T10:42:16;19.40;1.00
25512;DHT22;13414;44.534;18.700;2024-03-22T10:44:44;19.50;99.90
25512;DHT22;13414;44.534;18.700;2024-03-22T10:47:13;19.40;1.00
25512;DHT22;13414;44.534;18.700;2024-03-22T10:49:42;19.70;99.90
25512;DHT22;13414;44.534;18.700;2024-03-22T10:52:10;19.70;99.90
25512;DHT22;13414;44.534;18.700;2024-03-22T10:54:40;19.80;99.90
25512;DHT22;13414;44.534;18.700;2024-03-22T10:57:15;19.60;99.90
25512;DHT22;13414;44.534;18.700;2024-03-22T10:59:46;19.70;99.90
25512;DHT22;13414;44.534;18.700;2024-03-22T11:02:13;19.40;99.90
25512;DHT22;13414;44.534;18.700;2024-03-22T11:04:40;19.20;99.90
25512;DHT22;13414;44.534;18.700;2024-03-22T11:07:07;19.20;99.90
25512;DHT22;13414;44.534;18.700;2024-03-22T11:09:35;19.40;99.90
25512;DHT22;13414;44.534;18.700;2024-03-22T11:12:04;19.50;99.90
25512;DHT22;13414;44.534;18.700;2024-03-22T11:14:33;19.70;99.90
25512;DHT22;13414;44.534;18.700;2024-03-22T11:16:59;19.80;99.90
25512;DHT22;13414;44.534;18.700;2024-03-22T11:19:27;19.50;99.90
25512;DHT22;13414;44.534;18.700;2024-03-22T11:21:54;19.20;1.00
25512;DHT22;13414;44.534;18.700;2024-03-22T11:24:22;19.30;99.90
25512;DHT22;13414;44.534;18.700;2024-03-22T11:26:48;19.50;99.90
25512;DHT22;13414;44.534;18.700;2024-03-22T11:29:17;19.60;99.90
25512;DHT22;13414;44.534;18.700;2024-03-22T11:31:44;19.90;99.90
25512;DHT22;13414;44.534;18.700;2024-03-22T11:34:12;19.90;99.90
25512;DHT22;13414;44.534;18.700;2024-03-22T11:36:38;19.80;99.90
25512;DHT22;13414;44.534;18.700;2024-03-22T11:39:06;19.70;99.90
25512;DHT22;13414;44.534;18.700;2024-03-22T11:41:33;20.00;99.90
25512;DHT22;13414;44.534;18.700;2024-03-22T11:44:02;20.30;99.90
25512;DHT22;13414;44.534;18.700;2024-03-22T11:46:28;20.10;99.90
25512;DHT22;13414;44.534;18.700;2024-03-22T11:48:59;20.10;99.90
25512;DHT22;13414;44.534;18.700;2024-03-22T11:51:26;20.10;99.90
25512;DHT22;13414;44.534;18.700;2024-03-22T11:53:54;20.00;99.90
25512;DHT22;13414;44.534;18.700;2024-03-22T11:56:22;20.10;99.90
25512;DHT22;13414;44.534;18.700;2024-03-22T11:58:57;20.10;99.90
25512;DHT22;13414;44.534;18.700;2024-03-22T12:01:23;20.40;99.90
25512;DHT22;13414;44.534;18.700;2024-03-22T12:03:51;20.70;99.90
25512;DHT22;13414;44.534;18.700;2024-03-22T12:06:19;20.80;99.90
25512;DHT22;13414;44.534;18.700;2024-03-22T12:08:47;20.90;99.90
25512;DHT22;13414;44.534;18.700;2024-03-22T12:11:13;20.70;99.90
25512;DHT22;13414;44.534;18.700;2024-03-22T12:13:42;20.80;99.90
25512;DHT22;13414;44.534;18.700;2024-03-22T12:16:08;20.50;99.90
25512;DHT22;13414;44.534;18.700;2024-03-22T12:18:36;20.20;99.90
25512;DHT22;13414;44.534;18.700;2024-03-22T12:21:03;20.30;99.90
25512;DHT22;13414;44.534;18.700;2024-03-22T12:23:32;20.60;99.90
25512;DHT22;13414;44.534;18.700;2024-03-22T12:25:58;20.90;99.90
25512;DHT22;13414;44.534;18.700;2024-03-22T12:28:26;20.70;99.90
25512;DHT22;13414;44.534;18.700;2024-03-22T12:30:52;20.90;99.90
25512;DHT22;13414;44.534;18.700;2024-03-22T12:33:20;21.10;99.90
25512;DHT22;13414;44.534;18.700;2024-03-22T12:35:46;20.70;99.90
25512;DHT22;13414;44.534;18.700;2024-03-22T12:38:14;20.50;99.90
25512;DHT22;13414;44.534;18.700;2024-03-22T12:40:42;20.50;99.90
25512;DHT22;13414;44.534;18.700;2024-03-22T12:43:09;20.40;99.90
25512;DHT22;13414;44.534;18.700;2024-03-22T12:45:36;20.50;99.90
25512;DHT22;13414;44.534;18.700;2024-03-22T12:48:04;20.70;99.90
25512;DHT22;13414;44.534;18.700;2024-03-22T12:50:31;20.80;99.90
25512;DHT22;13414;44.534;18.700;2024-03-22T12:52:59;20.60;99.90
25512;DHT22;13414;44.534;18.700;2024-03-22T12:55:25;20.20;99.90
25512;DHT22;13414;44.534;18.700;2024-03-22T12:57:55;20.20;99.90
25512;DHT22;13414;44.534;18.700;2024-03-22T13:00:22;20.10;99.90
25512;DHT22;13414;44.534;18.700;2024-03-22T13:02:50;19.70;99.90
25512;DHT22;13414;44.534;18.700;2024-03-22T13:05:16;19.70;99.90
25512;DHT22;13414;44.534;18.700;2024-03-22T13:07:43;19.60;99.90
25512;DHT22;13414;44.534;18.700;2024-03-22T13:10:10;19.60;99.90
25512;DHT22;13414;44.534;18.700;2024-03-22T13:12:37;19.60;99.90
25512;DHT22;13414;44.534;18.700;2024-03-22T13:15:06;19.60;99.90
25512;DHT22;13414;44.534;18.700;2024-03-22T13:17:33;19.40;99.90
25512;DHT22;13414;44.534;18.700;2024-03-22T13:20:00;19.40;99.90
25512;DHT22;13414;44.534;18.700;2024-03-22T13:22:27;19.30;99.90
25512;DHT22;13414;44.534;18.700;2024-03-22T13:24:54;19.30;99.90
25512;DHT22;13414;44.534;18.700;2024-03-22T13:27:22;19.10;99.90
25512;DHT22;13414;44.534;18.700;2024-03-22T13:29:48;19.00;99.90
25512;DHT22;13414;44.534;18.700;2024-03-22T13:32:18;18.90;99.90
25512;DHT22;13414;44.534;18.700;2024-03-22T13:34:46;18.80;99.90
25512;DHT22;13414;44.534;18.700;2024-03-22T13:37:13;18.80;99.90
25512;DHT22;13414;44.534;18.700;2024-03-22T13:39:40;18.60;99.90
25512;DHT22;13414;44.534;18.700;2024-03-22T13:42:07;18.50;99.90
25512;DHT22;13414;44.534;18.700;2024-03-22T13:44:35;18.70;99.90
25512;DHT22;13414;44.534;18.700;2024-03-22T13:47:02;18.70;99.90
25512;DHT22;13414;44.534;18.700;2024-03-22T13:49:32;18.80;99.90
25512;DHT22;13414;44.534;18.700;2024-03-22T13:51:59;18.90;99.90
25512;DHT22;13414;44.534;18.700;2024-03-22T13:54:26;18.90;99.90
25512;DHT22;13414;44.534;18.700;2024-03-22T13:56:53;18.90;99.90
25512;DHT22;13414;44.534;18.700;2024-03-22T13:59:19;19.00;99.90
25512;DHT22;13414;44.534;18.700;2024-03-22T14:01:47;18.90;99.90
25512;DHT22;13414;44.534;18.700;2024-03-22T14:04:13;18.70;99.90
25512;DHT22;13414;44.534;18.700;2024-03-22T14:06:54;18.80;99.90
25512;DHT22;13414;44.534;18.700;2024-03-22T14:09:21;18.90;99.90
25512;DHT22;13414;44.534;18.700;2024-03-22T14:11:48;18.90;99.90
25512;DHT22;13414;44.534;18.700;2024-03-22T14:17:40;19.00;99.90
25512;DHT22;13414;44.534;18.700;2024-03-22T14:20:07;19.00;99.90
25512;DHT22;13414;44.534;18.700;2024-03-22T14:22:39;18.90;99.90
25512;DHT22;13414;44.534;18.700;2024-03-22T14:25:06;18.80;99.90
25512;DHT22;13414;44.534;18.700;2024-03-22T14:27:34;18.70;99.90
25512;DHT22;13414;44.534;18.700;2024-03-22T14:30:02;18.60;99.90
25512;DHT22;13414;44.534;18.700;2024-03-22T14:32:31;18.40;99.90
25512;DHT22;13414;44.534;18.700;2024-03-22T14:34:58;18.20;99.90
25512;DHT22;13414;44.534;18.700;2024-03-22T14:37:26;18.20;99.90
25512;DHT22;13414;44.534;18.700;2024-03-22T14:39:53;18.10;99.90
25512;DHT22;13414;44.534;18.700;2024-03-22T14:42:21;18.20;99.90
25512;DHT22;13414;44.534;18.700;2024-03-22T14:44:47;18.20;99.90
25512;DHT22;13414;44.534;18.700;2024-03-22T14:47:15;18.20;99.90
25512;DHT22;13414;44.534;18.700;2024-03-22T14:49:41;18.20;99.90
25512;DHT22;13414;44.534;18.700;2024-03-22T14:52:09;18.20;99.90
25512;DHT22;13414;44.534;18.700;2024-03-22T14:54:35;18.30;99.90
25512;DHT22;13414;44.534;18.700;2024-03-22T14:57:06;18.30;99.90
25512;DHT22;13414;44.534;18.700;2024-03-22T14:59:32;18.10;99.90
25512;DHT22;13414;44.534;18.700;2024-03-22T15:02:00;18.10;99.90
25512;DHT22;13414;44.534;18.700;2024-03-22T15:04:28;18.20;99.90
25512;DHT22;13414;44.534;18.700;2024-03-22T15:06:55;18.30;99.90
25512;DHT22;13414;44.534;18.700;2024-03-22T15:09:22;18.40;99.90
25512;DHT22;13414;44.534;18.700;2024-03-22T15:11:50;18.30;99.90
25512;DHT22;13414;44.534;18.700;2024-03-22T15:14:17;18.40;99.90
25512;DHT22;13414;44.534;18.700;2024-03-22T15:16:45;18.20;99.90
25512;DHT22;13414;44.534;18.700;2024-03-22T15:19:11;18.20;99.90
25512;DHT22;13414;44.534;18.700;2024-03-22T15:21:39;18.20;99.90
25512;DHT22;13414;44.534;18.700;2024-03-22T15:24:05;18.10;99.90
25512;DHT22;13414;44.534;18.700;2024-03-22T15:26:33;17.90;99.90
25512;DHT22;13414;44.534;18.700;2024-03-22T15:28:59;17.80;99.90
25512;DHT22;13414;44.534;18.700;2024-03-22T15:31:28;17.70;99.90
25512;DHT22;13414;44.534;18.700;2024-03-22T15:33:55;17.70;99.90